sensor_id;sensor_type;location;lat;lon;timestamp;temperature;humidity
21563;DHT22;10942;47.894;11.424;2022-10-16T00:02:20;11.90;99.90
21563;DHT22;10942;47.894;11.424;2022-10-16T00:04:46;11.90;99.90
21563;DHT22;10942;47.894;11.424;2022-10-16T00:07:11;11.90;99.90
21563;DHT22;10942;47.894;11.424;2022-10-16T00:09:37;11.90;99.90
21563;DHT22;10942;47.894;11.424;2022-10-16T00:12:03;11.80;99.90
21563;DHT22;10942;47.894;11.424;2022-10-16T00:14:30;11.80;99.90
21563;DHT22;10942;47.894;11.424;2022-10-16T00:16:55;11.70;99.90
21563;DHT22;10942;47.894;11.424;2022-10-16T00:19:21;11.70;99.90
21563;DHT22;10942;47.894;11.424;2022-10-16T00:21:47;11.70;99.90
21563;DHT22;10942;47.894;11.424;2022-10-16T00:24:12;11.60;99.90
21563;DHT22;10942;47.894;11.424;2022-10-16T00:26:38;11.60;99.90
21563;DHT22;10942;47.894;11.424;2022-10-16T00:29:05;11.60;99.90
21563;DHT22;10942;47.894;11.424;2022-10-16T00:31:32;11.60;99.90
21563;DHT22;10942;47.894;11.424;2022-10-16T00:33:58;11.50;99.90
21563;DHT22;10942;47.894;11.424;2022-10-16T00:36:24;11.40;99.90
21563;DHT22;10942;47.894;11.424;2022-10-16T00:38:52;11.50;99.90
21563;DHT22;10942;47.894;11.424;2022-10-16T00:41:20;11.50;99.90
21563;DHT22;10942;47.894;11.424;2022-10-16T00:43:52;11.50;99.90
21563;DHT22;10942;47.894;11.424;2022-10-16T00:46:27;11.50;99.90
21563;DHT22;10942;47.894;11.424;2022-10-16T00:49:05;11.50;99.90
21563;DHT22;10942;47.894;11.424;2022-10-16T00:51:37;11.40;99.90
21563;DHT22;10942;47.894;11.424;2022-10-16T00:54:04;11.40;99.90
21563;DHT22;10942;47.894;11.424;2022-10-16T00:56:32;11.40;99.90
21563;DHT22;10942;47.894;11.424;2022-10-16T00:58:59;11.40;99.90
21563;DHT22;10942;47.894;11.424;2022-10-16T01:01:26;11.40;99.90
21563;DHT22;10942;47.894;11.424;2022-10-16T01:03:52;11.40;99.90
21563;DHT22;10942;47.894;11.424;2022-10-16T01:06:24;11.30;99.90
21563;DHT22;10942;47.894;11.424;2022-10-16T01:09:17;11.30;99.90
21563;DHT22;10942;47.894;11.424;2022-10-16T01:12:01;11.30;99.90
21563;DHT22;10942;47.894;11.424;2022-10-16T01:17:41;11.30;99.90
21563;DHT22;10942;47.894;11.424;2022-10-16T01:27:57;11.20;99.90
21563;DHT22;10942;47.894;11.424;2022-10-16T01:30:28;11.20;99.90
21563;DHT22;10942;47.894;11.424;2022-10-16T01:33:01;11.10;99.90
21563;DHT22;10942;47.894;11.424;2022-10-16T01:35:39;11.10;99.90
21563;DHT22;10942;47.894;11.424;2022-10-16T01:38:21;11.00;99.90
21563;DHT22;10942;47.894;11.424;2022-10-16T01:40:52;11.00;99.90
21563;DHT22;10942;47.894;11.424;2022-10-16T01:43:28;11.00;99.90
21563;DHT22;10942;47.894;11.424;2022-10-16T01:45:56;11.00;99.90
21563;DHT22;10942;47.894;11.424;2022-10-16T01:48:23;11.00;99.90
21563;DHT22;10942;47.894;11.424;2022-10-16T01:51:11;11.00;99.90
21563;DHT22;10942;47.894;11.424;2022-10-16T01:53:39;11.00;99.90
21563;DHT22;10942;47.894;11.424;2022-10-16T01:56:08;11.00;99.90
21563;DHT22;10942;47.894;11.424;2022-10-16T01:58:39;11.00;99.90
21563;DHT22;10942;47.894;11.424;2022-10-16T02:01:08;11.00;99.90
21563;DHT22;10942;47.894;11.424;2022-10-16T02:03:37;10.90;99.90
21563;DHT22;10942;47.894;11.424;2022-10-16T02:06:06;11.00;99.90
21563;DHT22;10942;47.894;11.424;2022-10-16T02:08:33;10.90;99.90
21563;DHT22;10942;47.894;11.424;2022-10-16T02:10:59;10.90;99.90
21563;DHT22;10942;47.894;11.424;2022-10-16T02:13:31;10.90;99.90
21563;DHT22;10942;47.894;11.424;2022-10-16T02:15:58;10.90;99.90
21563;DHT22;10942;47.894;11.424;2022-10-16T02:18:25;10.90;99.90
21563;DHT22;10942;47.894;11.424;2022-10-16T02:21:05;10.80;99.90
21563;DHT22;10942;47.894;11.424;2022-10-16T02:23:50;10.80;99.90
21563;DHT22;10942;47.894;11.424;2022-10-16T02:26:27;10.80;99.90
21563;DHT22;10942;47.894;11.424;2022-10-16T02:28:59;10.80;99.90
21563;DHT22;10942;47.894;11.424;2022-10-16T02:31:28;10.70;99.90
21563;DHT22;10942;47.894;11.424;2022-10-16T02:33:57;10.70;99.90
21563;DHT22;10942;47.894;11.424;2022-10-16T02:36:25;10.70;99.90
21563;DHT22;10942;47.894;11.424;2022-10-16T02:38:52;10.70;99.90
21563;DHT22;10942;47.894;11.424;2022-10-16T02:41:20;10.60;99.90
21563;DHT22;10942;47.894;11.424;2022-10-16T02:43:46;10.60;99.90
21563;DHT22;10942;47.894;11.424;2022-10-16T02:46:12;10.60;99.90
21563;DHT22;10942;47.894;11.424;2022-10-16T02:48:37;10.50;99.90
21563;DHT22;10942;47.894;11.424;2022-10-16T02:51:04;10.50;99.90
21563;DHT22;10942;47.894;11.424;2022-10-16T02:53:30;10.50;99.90
21563;DHT22;10942;47.894;11.424;2022-10-16T02:55:56;10.50;99.90
21563;DHT22;10942;47.894;11.424;2022-10-16T02:58:21;10.50;99.90
21563;DHT22;10942;47.894;11.424;2022-10-16T03:00:47;10.50;99.90
21563;DHT22;10942;47.894;11.424;2022-10-16T03:03:13;10.50;99.90
21563;DHT22;10942;47.894;11.424;2022-10-16T03:05:38;10.40;99.90
21563;DHT22;10942;47.894;11.424;2022-10-16T03:08:04;10.30;99.90
21563;DHT22;10942;47.894;11.424;2022-10-16T03:10:31;10.30;99.90
21563;DHT22;10942;47.894;11.424;2022-10-16T03:12:56;10.40;99.90
21563;DHT22;10942;47.894;11.424;2022-10-16T03:15:22;10.40;99.90
21563;DHT22;10942;47.894;11.424;2022-10-16T03:17:48;10.40;99.90
21563;DHT22;10942;47.894;11.424;2022-10-16T03:20:13;10.30;99.90
21563;DHT22;10942;47.894;11.424;2022-10-16T03:22:39;10.30;99.90
21563;DHT22;10942;47.894;11.424;2022-10-16T03:25:05;10.30;99.90
21563;DHT22;10942;47.894;11.424;2022-10-16T03:27:31;10.30;99.90
21563;DHT22;10942;47.894;11.424;2022-10-16T03:29:57;10.30;99.90
21563;DHT22;10942;47.894;11.424;2022-10-16T03:32:23;10.40;99.90
21563;DHT22;10942;47.894;11.424;2022-10-16T03:34:50;10.30;99.90
21563;DHT22;10942;47.894;11.424;2022-10-16T03:37:16;10.30;99.90
21563;DHT22;10942;47.894;11.424;2022-10-16T03:39:41;10.30;99.90
21563;DHT22;10942;47.894;11.424;2022-10-16T03:42:07;10.20;99.90
21563;DHT22;10942;47.894;11.424;2022-10-16T03:44:33;10.20;99.90
21563;DHT22;10942;47.894;11.424;2022-10-16T03:46:58;10.00;99.90
21563;DHT22;10942;47.894;11.424;2022-10-16T03:49:24;9.80;99.90
21563;DHT22;10942;47.894;11.424;2022-10-16T03:51:50;9.90;99.90
21563;DHT22;10942;47.894;11.424;2022-10-16T03:54:15;9.90;99.90
21563;DHT22;10942;47.894;11.424;2022-10-16T03:56:41;9.90;99.90
21563;DHT22;10942;47.894;11.424;2022-10-16T03:59:06;9.90;99.90
21563;DHT22;10942;47.894;11.424;2022-10-16T04:01:32;10.00;99.90
21563;DHT22;10942;47.894;11.424;2022-10-16T04:03:58;10.00;99.90
21563;DHT22;10942;47.894;11.424;2022-10-16T04:06:23;10.10;99.90
21563;DHT22;10942;47.894;11.424;2022-10-16T04:08:49;10.10;99.90
21563;DHT22;10942;47.894;11.424;2022-10-16T04:11:15;10.20;99.90
21563;DHT22;10942;47.894;11.424;2022-10-16T04:13:40;10.20;99.90
21563;DHT22;10942;47.894;11.424;2022-10-16T04:16:07;10.20;99.90
21563;DHT22;10942;47.894;11.424;2022-10-16T04:18:32;10.10;99.90
21563;DHT22;10942;47.894;11.424;2022-10-16T04:21:03;10.20;99.90
21563;DHT22;10942;47.894;11.424;2022-10-16T04:23:28;10.20;99.90
21563;DHT22;10942;47.894;11.424;2022-10-16T04:25:54;10.20;99.90
21563;DHT22;10942;47.894;11.424;2022-10-16T04:28:20;10.20;99.90
21563;DHT22;10942;47.894;11.424;2022-10-16T04:30:45;10.30;99.90
21563;DHT22;10942;47.894;11.424;2022-10-16T04:33:11;10.30;99.90
21563;DHT22;10942;47.894;11.424;2022-10-16T04:35:38;10.30;99.90
21563;DHT22;10942;47.894;11.424;2022-10-16T04:38:04;10.20;99.90
21563;DHT22;10942;47.894;11.424;2022-10-16T04:40:29;10.30;99.90
21563;DHT22;10942;47.894;11.424;2022-10-16T04:42:58;10.30;99.90
21563;DHT22;10942;47.894;11.424;2022-10-16T04:45:25;10.30;99.90
21563;DHT22;10942;47.894;11.424;2022-10-16T04:47:50;10.30;99.90
21563;DHT22;10942;47.894;11.424;2022-10-16T04:50:16;10.30;99.90
21563;DHT22;10942;47.894;11.424;2022-10-16T04:53:00;10.30;99.90
21563;DHT22;10942;47.894;11.424;2022-10-16T04:55:25;10.30;99.90
21563;DHT22;10942;47.894;11.424;2022-10-16T04:57:51;10.40;99.90
21563;DHT22;10942;47.894;11.424;2022-10-16T05:00:17;10.30;99.90
21563;DHT22;10942;47.894;11.424;2022-10-16T05:02:42;10.30;99.90
21563;DHT22;10942;47.894;11.424;2022-10-16T05:05:08;10.30;99.90
21563;DHT22;10942;47.894;11.424;2022-10-16T05:07:34;10.30;99.90
21563;DHT22;10942;47.894;11.424;2022-10-16T05:10:00;10.30;99.90
21563;DHT22;10942;47.894;11.424;2022-10-16T05:12:25;10.30;99.90
21563;DHT22;10942;47.894;11.424;2022-10-16T05:14:51;10.30;99.90
21563;DHT22;10942;47.894;11.424;2022-10-16T05:17:17;10.50;99.90
21563;DHT22;10942;47.894;11.424;2022-10-16T05:19:42;10.40;99.90
21563;DHT22;10942;47.894;11.424;2022-10-16T05:22:08;10.40;99.90
21563;DHT22;10942;47.894;11.424;2022-10-16T05:24:34;10.40;99.90
21563;DHT22;10942;47.894;11.424;2022-10-16T05:26:59;10.40;99.90
21563;DHT22;10942;47.894;11.424;2022-10-16T05:29:25;10.40;99.90
21563;DHT22;10942;47.894;11.424;2022-10-16T05:31:52;10.40;99.90
21563;DHT22;10942;47.894;11.424;2022-10-16T05:34:19;10.40;99.90
21563;DHT22;10942;47.894;11.424;2022-10-16T05:36:45;10.30;99.90
21563;DHT22;10942;47.894;11.424;2022-10-16T05:39:11;10.40;99.90
21563;DHT22;10942;47.894;11.424;2022-10-16T05:41:36;10.40;99.90
21563;DHT22;10942;47.894;11.424;2022-10-16T05:44:05;10.40;99.90
21563;DHT22;10942;47.894;11.424;2022-10-16T05:46:32;10.40;99.90
21563;DHT22;10942;47.894;11.424;2022-10-16T05:48:57;10.50;99.90
21563;DHT22;10942;47.894;11.424;2022-10-16T05:51:23;10.40;99.90
21563;DHT22;10942;47.894;11.424;2022-10-16T05:53:49;10.40;99.90
21563;DHT22;10942;47.894;11.424;2022-10-16T05:56:15;10.30;99.90
21563;DHT22;10942;47.894;11.424;2022-10-16T05:58:41;10.20;99.90
21563;DHT22;10942;47.894;11.424;2022-10-16T06:01:15;10.20;99.90
21563;DHT22;10942;47.894;11.424;2022-10-16T06:03:41;10.30;99.90
21563;DHT22;10942;47.894;11.424;2022-10-16T06:06:11;10.40;99.90
21563;DHT22;10942;47.894;11.424;2022-10-16T06:08:37;10.50;99.90
21563;DHT22;10942;47.894;11.424;2022-10-16T06:11:09;10.50;99.90
21563;DHT22;10942;47.894;11.424;2022-10-16T06:13:35;10.50;99.90
21563;DHT22;10942;47.894;11.424;2022-10-16T06:16:02;10.60;99.90
21563;DHT22;10942;47.894;11.424;2022-10-16T06:18:28;10.80;99.90
21563;DHT22;10942;47.894;11.424;2022-10-16T06:20:55;11.10;99.90
21563;DHT22;10942;47.894;11.424;2022-10-16T06:23:21;11.20;99.90
21563;DHT22;10942;47.894;11.424;2022-10-16T06:25:47;11.20;99.90
21563;DHT22;10942;47.894;11.424;2022-10-16T06:28:16;11.30;99.90
21563;DHT22;10942;47.894;11.424;2022-10-16T06:30:42;11.40;99.90
21563;DHT22;10942;47.894;11.424;2022-10-16T06:33:10;11.50;99.90
21563;DHT22;10942;47.894;11.424;2022-10-16T06:35:36;11.60;99.90
21563;DHT22;10942;47.894;11.424;2022-10-16T06:38:01;11.90;99.90
21563;DHT22;10942;47.894;11.424;2022-10-16T06:40:27;12.00;99.90
21563;DHT22;10942;47.894;11.424;2022-10-16T06:42:55;12.10;99.90
21563;DHT22;10942;47.894;11.424;2022-10-16T06:45:20;12.20;99.90
21563;DHT22;10942;47.894;11.424;2022-10-16T06:47:46;12.30;99.90
21563;DHT22;10942;47.894;11.424;2022-10-16T06:50:12;12.60;99.90
21563;DHT22;10942;47.894;11.424;2022-10-16T06:52:37;12.90;99.90
21563;DHT22;10942;47.894;11.424;2022-10-16T06:55:04;13.10;99.90
21563;DHT22;10942;47.894;11.424;2022-10-16T06:57:29;13.40;99.90
21563;DHT22;10942;47.894;11.424;2022-10-16T06:59:55;13.70;99.90
21563;DHT22;10942;47.894;11.424;2022-10-16T07:02:21;13.80;99.90
21563;DHT22;10942;47.894;11.424;2022-10-16T07:04:47;14.00;99.90
21563;DHT22;10942;47.894;11.424;2022-10-16T07:07:13;14.20;99.90
21563;DHT22;10942;47.894;11.424;2022-10-16T07:09:39;14.30;99.90
21563;DHT22;10942;47.894;11.424;2022-10-16T07:12:05;14.70;99.90
21563;DHT22;10942;47.894;11.424;2022-10-16T07:14:31;14.90;99.90
21563;DHT22;10942;47.894;11.424;2022-10-16T07:16:56;15.10;99.90
21563;DHT22;10942;47.894;11.424;2022-10-16T07:19:22;15.20;99.90
21563;DHT22;10942;47.894;11.424;2022-10-16T07:21:48;15.40;99.90
21563;DHT22;10942;47.894;11.424;2022-10-16T07:24:15;16.10;99.90
21563;DHT22;10942;47.894;11.424;2022-10-16T07:26:43;16.60;99.90
21563;DHT22;10942;47.894;11.424;2022-10-16T07:29:19;16.80;99.90
21563;DHT22;10942;47.894;11.424;2022-10-16T07:31:46;17.10;99.90
21563;DHT22;10942;47.894;11.424;2022-10-16T07:34:14;17.00;99.90
21563;DHT22;10942;47.894;11.424;2022-10-16T07:36:40;16.40;99.90
21563;DHT22;10942;47.894;11.424;2022-10-16T07:39:05;16.00;99.90
21563;DHT22;10942;47.894;11.424;2022-10-16T07:41:34;15.50;99.90
21563;DHT22;10942;47.894;11.424;2022-10-16T07:44:02;15.50;99.90
21563;DHT22;10942;47.894;11.424;2022-10-16T07:46:29;15.40;99.90
21563;DHT22;10942;47.894;11.424;2022-10-16T07:48:55;15.20;99.90
21563;DHT22;10942;47.894;11.424;2022-10-16T07:51:24;15.00;99.90
21563;DHT22;10942;47.894;11.424;2022-10-16T07:53:50;14.90;99.90
21563;DHT22;10942;47.894;11.424;2022-10-16T07:56:17;14.90;99.90
21563;DHT22;10942;47.894;11.424;2022-10-16T07:58:43;15.20;99.90
21563;DHT22;10942;47.894;11.424;2022-10-16T08:01:11;15.60;99.90
21563;DHT22;10942;47.894;11.424;2022-10-16T08:03:42;15.70;99.90
21563;DHT22;10942;47.894;11.424;2022-10-16T08:06:07;15.70;99.90
21563;DHT22;10942;47.894;11.424;2022-10-16T08:08:34;15.90;99.90
21563;DHT22;10942;47.894;11.424;2022-10-16T08:11:00;15.90;99.90
21563;DHT22;10942;47.894;11.424;2022-10-16T08:13:29;15.90;99.90
21563;DHT22;10942;47.894;11.424;2022-10-16T08:15:54;16.10;99.90
21563;DHT22;10942;47.894;11.424;2022-10-16T08:18:20;16.10;99.90
21563;DHT22;10942;47.894;11.424;2022-10-16T08:20:46;16.20;99.90
21563;DHT22;10942;47.894;11.424;2022-10-16T08:23:12;16.30;99.90
21563;DHT22;10942;47.894;11.424;2022-10-16T08:25:41;16.30;99.90
21563;DHT22;10942;47.894;11.424;2022-10-16T08:28:08;16.40;99.90
21563;DHT22;10942;47.894;11.424;2022-10-16T08:30:35;16.40;99.90
21563;DHT22;10942;47.894;11.424;2022-10-16T08:33:01;16.40;99.90
21563;DHT22;10942;47.894;11.424;2022-10-16T08:35:26;16.60;99.90
21563;DHT22;10942;47.894;11.424;2022-10-16T08:37:52;16.70;99.90
21563;DHT22;10942;47.894;11.424;2022-10-16T08:40:27;16.80;99.90
21563;DHT22;10942;47.894;11.424;2022-10-16T08:43:31;16.80;99.90
21563;DHT22;10942;47.894;11.424;2022-10-16T08:48:59;17.00;99.90
21563;DHT22;10942;47.894;11.424;2022-10-16T08:51:33;17.10;99.90
21563;DHT22;10942;47.894;11.424;2022-10-16T08:54:06;17.20;99.90
21563;DHT22;10942;47.894;11.424;2022-10-16T08:56:34;17.30;99.90
21563;DHT22;10942;47.894;11.424;2022-10-16T08:59:00;17.40;99.90
21563;DHT22;10942;47.894;11.424;2022-10-16T09:01:45;17.30;99.90
21563;DHT22;10942;47.894;11.424;2022-10-16T09:07:01;17.80;99.90
21563;DHT22;10942;47.894;11.424;2022-10-16T09:12:37;18.10;99.90
21563;DHT22;10942;47.894;11.424;2022-10-16T09:15:17;18.30;99.90
21563;DHT22;10942;47.894;11.424;2022-10-16T09:23:30;19.10;99.90
21563;DHT22;10942;47.894;11.424;2022-10-16T09:25:58;19.30;99.90
21563;DHT22;10942;47.894;11.424;2022-10-16T09:28:24;19.60;99.90
21563;DHT22;10942;47.894;11.424;2022-10-16T09:30:50;19.90;99.90
21563;DHT22;10942;47.894;11.424;2022-10-16T09:33:19;20.10;99.90
21563;DHT22;10942;47.894;11.424;2022-10-16T09:35:53;20.40;99.90
21563;DHT22;10942;47.894;11.424;2022-10-16T09:38:29;20.70;99.90
21563;DHT22;10942;47.894;11.424;2022-10-16T09:40:58;21.10;99.90
21563;DHT22;10942;47.894;11.424;2022-10-16T09:43:39;21.60;99.90
21563;DHT22;10942;47.894;11.424;2022-10-16T09:48:44;22.90;99.90
21563;DHT22;10942;47.894;11.424;2022-10-16T09:51:23;23.60;99.90
21563;DHT22;10942;47.894;11.424;2022-10-16T09:53:58;24.40;99.90
21563;DHT22;10942;47.894;11.424;2022-10-16T09:56:30;25.10;99.90
21563;DHT22;10942;47.894;11.424;2022-10-16T09:58:59;25.60;99.90
21563;DHT22;10942;47.894;11.424;2022-10-16T10:01:37;25.90;99.90
21563;DHT22;10942;47.894;11.424;2022-10-16T10:04:04;26.30;99.90
21563;DHT22;10942;47.894;11.424;2022-10-16T10:06:31;26.70;99.90
21563;DHT22;10942;47.894;11.424;2022-10-16T10:09:43;27.10;99.90
21563;DHT22;10942;47.894;11.424;2022-10-16T10:14:30;27.40;99.90
21563;DHT22;10942;47.894;11.424;2022-10-16T10:22:43;27.40;99.90
21563;DHT22;10942;47.894;11.424;2022-10-16T10:30:29;26.50;99.90
21563;DHT22;10942;47.894;11.424;2022-10-16T10:38:27;25.20;99.90
21563;DHT22;10942;47.894;11.424;2022-10-16T10:41:13;24.60;99.90
21563;DHT22;10942;47.894;11.424;2022-10-16T10:46:49;23.80;99.90
21563;DHT22;10942;47.894;11.424;2022-10-16T10:54:41;23.20;99.90
21563;DHT22;10942;47.894;11.424;2022-10-16T11:00:28;22.80;99.90
21563;DHT22;10942;47.894;11.424;2022-10-16T11:05:47;22.60;99.90
21563;DHT22;10942;47.894;11.424;2022-10-16T11:11:03;22.40;99.90
21563;DHT22;10942;47.894;11.424;2022-10-16T11:13:40;22.50;99.90
21563;DHT22;10942;47.894;11.424;2022-10-16T11:16:30;22.30;99.90
21563;DHT22;10942;47.894;11.424;2022-10-16T11:21:43;22.10;99.90
21563;DHT22;10942;47.894;11.424;2022-10-16T11:24:20;22.10;99.90
21563;DHT22;10942;47.894;11.424;2022-10-16T11:26:48;22.10;99.90
21563;DHT22;10942;47.894;11.424;2022-10-16T11:29:24;22.00;99.90
21563;DHT22;10942;47.894;11.424;2022-10-16T11:31:57;22.00;99.90
21563;DHT22;10942;47.894;11.424;2022-10-16T11:34:40;21.90;99.90
21563;DHT22;10942;47.894;11.424;2022-10-16T11:37:16;21.90;99.90
21563;DHT22;10942;47.894;11.424;2022-10-16T11:39:44;21.90;99.90
21563;DHT22;10942;47.894;11.424;2022-10-16T11:42:26;21.90;99.90
21563;DHT22;10942;47.894;11.424;2022-10-16T11:48:25;21.80;99.90
21563;DHT22;10942;47.894;11.424;2022-10-16T11:50:58;21.80;99.90
21563;DHT22;10942;47.894;11.424;2022-10-16T11:53:53;21.80;99.90
21563;DHT22;10942;47.894;11.424;2022-10-16T11:56:21;21.70;99.90
21563;DHT22;10942;47.894;11.424;2022-10-16T11:59:00;21.80;99.90
21563;DHT22;10942;47.894;11.424;2022-10-16T12:01:44;21.80;99.90
21563;DHT22;10942;47.894;11.424;2022-10-16T12:04:40;21.80;99.90
21563;DHT22;10942;47.894;11.424;2022-10-16T12:07:23;21.90;99.90
21563;DHT22;10942;47.894;11.424;2022-10-16T12:09:50;21.90;99.90
21563;DHT22;10942;47.894;11.424;2022-10-16T12:15:02;21.80;99.90
21563;DHT22;10942;47.894;11.424;2022-10-16T12:17:36;21.90;99.90
21563;DHT22;10942;47.894;11.424;2022-10-16T12:22:41;21.90;99.90
21563;DHT22;10942;47.894;11.424;2022-10-16T12:25:25;21.80;99.90
21563;DHT22;10942;47.894;11.424;2022-10-16T12:28:04;21.80;99.90
21563;DHT22;10942;47.894;11.424;2022-10-16T12:30:34;21.80;99.90
21563;DHT22;10942;47.894;11.424;2022-10-16T12:35:34;21.80;99.90
21563;DHT22;10942;47.894;11.424;2022-10-16T12:41:07;21.80;99.90
21563;DHT22;10942;47.894;11.424;2022-10-16T12:43:47;21.90;99.90
21563;DHT22;10942;47.894;11.424;2022-10-16T12:48:42;21.90;99.90
21563;DHT22;10942;47.894;11.424;2022-10-16T12:51:33;21.80;99.90
21563;DHT22;10942;47.894;11.424;2022-10-16T12:59:51;21.80;99.90
21563;DHT22;10942;47.894;11.424;2022-10-16T13:18:53;21.70;99.90
21563;DHT22;10942;47.894;11.424;2022-10-16T13:21:47;21.70;99.90
21563;DHT22;10942;47.894;11.424;2022-10-16T13:30:08;21.70;99.90
21563;DHT22;10942;47.894;11.424;2022-10-16T13:32:34;21.70;99.90
21563;DHT22;10942;47.894;11.424;2022-10-16T13:35:00;21.70;99.90
21563;DHT22;10942;47.894;11.424;2022-10-16T13:37:26;21.70;99.90
21563;DHT22;10942;47.894;11.424;2022-10-16T13:40:18;21.60;99.90
21563;DHT22;10942;47.894;11.424;2022-10-16T13:42:44;21.60;99.90
21563;DHT22;10942;47.894;11.424;2022-10-16T13:45:24;21.60;99.90
21563;DHT22;10942;47.894;11.424;2022-10-16T13:48:04;21.60;99.90
21563;DHT22;10942;47.894;11.424;2022-10-16T13:50:31;21.50;99.90
21563;DHT22;10942;47.894;11.424;2022-10-16T13:53:14;21.50;99.90
21563;DHT22;10942;47.894;11.424;2022-10-16T13:55:40;21.50;99.90
21563;DHT22;10942;47.894;11.424;2022-10-16T13:58:12;21.50;99.90
21563;DHT22;10942;47.894;11.424;2022-10-16T14:00:39;21.50;99.90
21563;DHT22;10942;47.894;11.424;2022-10-16T14:03:11;21.50;99.90
21563;DHT22;10942;47.894;11.424;2022-10-16T14:05:46;21.50;99.90
21563;DHT22;10942;47.894;11.424;2022-10-16T14:08:12;21.50;99.90
21563;DHT22;10942;47.894;11.424;2022-10-16T14:10:38;21.50;99.90
21563;DHT22;10942;47.894;11.424;2022-10-16T14:13:07;21.50;99.90
21563;DHT22;10942;47.894;11.424;2022-10-16T14:15:35;21.50;99.90
21563;DHT22;10942;47.894;11.424;2022-10-16T14:18:02;21.50;99.90
21563;DHT22;10942;47.894;11.424;2022-10-16T14:20:31;21.40;99.90
21563;DHT22;10942;47.894;11.424;2022-10-16T14:23:03;21.40;99.90
21563;DHT22;10942;47.894;11.424;2022-10-16T14:25:31;21.30;99.90
21563;DHT22;10942;47.894;11.424;2022-10-16T14:28:18;21.30;99.90
21563;DHT22;10942;47.894;11.424;2022-10-16T14:30:55;21.40;99.90
21563;DHT22;10942;47.894;11.424;2022-10-16T14:38:25;21.40;99.90
21563;DHT22;10942;47.894;11.424;2022-10-16T14:40:51;21.40;99.90
21563;DHT22;10942;47.894;11.424;2022-10-16T14:43:22;21.40;99.90
21563;DHT22;10942;47.894;11.424;2022-10-16T14:45:52;21.40;99.90
21563;DHT22;10942;47.894;11.424;2022-10-16T14:48:19;21.40;99.90
21563;DHT22;10942;47.894;11.424;2022-10-16T14:50:46;21.40;99.90
21563;DHT22;10942;47.894;11.424;2022-10-16T14:53:12;21.50;99.90
21563;DHT22;10942;47.894;11.424;2022-10-16T14:55:39;21.60;99.90
21563;DHT22;10942;47.894;11.424;2022-10-16T14:58:08;21.60;99.90
21563;DHT22;10942;47.894;11.424;2022-10-16T15:00:35;21.60;99.90
21563;DHT22;10942;47.894;11.424;2022-10-16T15:03:01;21.50;99.90
21563;DHT22;10942;47.894;11.424;2022-10-16T15:05:27;21.40;99.90
21563;DHT22;10942;47.894;11.424;2022-10-16T15:07:54;21.40;99.90
21563;DHT22;10942;47.894;11.424;2022-10-16T15:10:22;21.30;99.90
21563;DHT22;10942;47.894;11.424;2022-10-16T15:12:48;21.20;99.90
21563;DHT22;10942;47.894;11.424;2022-10-16T15:15:37;21.10;99.90
21563;DHT22;10942;47.894;11.424;2022-10-16T15:18:04;21.00;99.90
21563;DHT22;10942;47.894;11.424;2022-10-16T15:20:33;20.80;99.90
21563;DHT22;10942;47.894;11.424;2022-10-16T15:23:04;20.70;99.90
21563;DHT22;10942;47.894;11.424;2022-10-16T15:25:47;20.50;99.90
21563;DHT22;10942;47.894;11.424;2022-10-16T15:28:14;20.40;99.90
21563;DHT22;10942;47.894;11.424;2022-10-16T15:30:40;20.30;99.90
21563;DHT22;10942;47.894;11.424;2022-10-16T15:33:12;20.10;99.90
21563;DHT22;10942;47.894;11.424;2022-10-16T15:35:39;19.80;99.90
21563;DHT22;10942;47.894;11.424;2022-10-16T15:38:05;19.80;99.90
21563;DHT22;10942;47.894;11.424;2022-10-16T15:40:30;19.80;99.90
21563;DHT22;10942;47.894;11.424;2022-10-16T15:42:56;19.60;99.90
21563;DHT22;10942;47.894;11.424;2022-10-16T15:45:22;19.50;99.90
21563;DHT22;10942;47.894;11.424;2022-10-16T15:47:47;19.40;99.90
21563;DHT22;10942;47.894;11.424;2022-10-16T15:50:15;19.20;99.90
21563;DHT22;10942;47.894;11.424;2022-10-16T15:52:41;19.20;99.90
21563;DHT22;10942;47.894;11.424;2022-10-16T15:55:09;19.10;99.90
21563;DHT22;10942;47.894;11.424;2022-10-16T15:57:36;18.90;99.90
21563;DHT22;10942;47.894;11.424;2022-10-16T16:00:09;18.90;99.90
21563;DHT22;10942;47.894;11.424;2022-10-16T16:02:37;18.80;99.90
21563;DHT22;10942;47.894;11.424;2022-10-16T16:05:03;18.70;99.90
21563;DHT22;10942;47.894;11.424;2022-10-16T16:07:33;18.70;99.90
21563;DHT22;10942;47.894;11.424;2022-10-16T16:09:59;18.60;99.90
21563;DHT22;10942;47.894;11.424;2022-10-16T16:12:25;18.50;99.90
21563;DHT22;10942;47.894;11.424;2022-10-16T16:14:50;18.50;99.90
21563;DHT22;10942;47.894;11.424;2022-10-16T16:17:17;18.50;99.90
21563;DHT22;10942;47.894;11.424;2022-10-16T16:19:42;18.40;99.90
21563;DHT22;10942;47.894;11.424;2022-10-16T16:22:08;18.30;99.90
21563;DHT22;10942;47.894;11.424;2022-10-16T16:24:33;18.30;99.90
21563;DHT22;10942;47.894;11.424;2022-10-16T16:26:59;18.10;99.90
21563;DHT22;10942;47.894;11.424;2022-10-16T16:29:25;18.00;99.90
21563;DHT22;10942;47.894;11.424;2022-10-16T16:31:50;17.90;99.90
21563;DHT22;10942;47.894;11.424;2022-10-16T16:34:26;17.90;99.90
21563;DHT22;10942;47.894;11.424;2022-10-16T16:36:52;17.90;99.90
21563;DHT22;10942;47.894;11.424;2022-10-16T16:39:18;17.80;99.90
21563;DHT22;10942;47.894;11.424;2022-10-16T16:41:44;17.80;99.90
21563;DHT22;10942;47.894;11.424;2022-10-16T16:44:11;17.70;99.90
21563;DHT22;10942;47.894;11.424;2022-10-16T16:46:37;17.70;99.90
21563;DHT22;10942;47.894;11.424;2022-10-16T16:49:06;17.60;99.90
21563;DHT22;10942;47.894;11.424;2022-10-16T16:51:32;17.40;99.90
21563;DHT22;10942;47.894;11.424;2022-10-16T16:53:58;17.30;99.90
21563;DHT22;10942;47.894;11.424;2022-10-16T16:56:24;17.20;99.90
21563;DHT22;10942;47.894;11.424;2022-10-16T16:58:53;17.10;99.90
21563;DHT22;10942;47.894;11.424;2022-10-16T17:01:19;17.10;99.90
21563;DHT22;10942;47.894;11.424;2022-10-16T17:03:45;17.10;99.90
21563;DHT22;10942;47.894;11.424;2022-10-16T17:06:12;17.10;99.90
21563;DHT22;10942;47.894;11.424;2022-10-16T17:08:39;17.10;99.90
21563;DHT22;10942;47.894;11.424;2022-10-16T17:11:05;17.00;99.90
21563;DHT22;10942;47.894;11.424;2022-10-16T17:13:34;17.00;99.90
21563;DHT22;10942;47.894;11.424;2022-10-16T17:16:05;17.00;99.90
21563;DHT22;10942;47.894;11.424;2022-10-16T17:18:31;16.90;99.90
21563;DHT22;10942;47.894;11.424;2022-10-16T17:21:05;16.90;99.90
21563;DHT22;10942;47.894;11.424;2022-10-16T17:23:31;16.90;99.90
21563;DHT22;10942;47.894;11.424;2022-10-16T17:26:09;16.80;99.90